Shin Puropan Maru — JG5508 — position and weather

sailwx.info

Track history (hours):
 
Tides and Currents Weather Stations Pressure Air Temp Water Temp Dewpoint Dewpoint Depression Visibility Wind Speed Wind Dir Waves Ship Positions

Shin Puropan Maru

Last reported at 2014-Sep-20 07:31 UTC. Time now 2014-Sep-22 08:10 UTC.
Position N 34°03' E 135°00'.

Length 66 m; draft 3.6 m.

Type: Ship (hazmat cat A). MMSI: 431100348.

Date/timePositionNaut miles runAvg speedWind from/ knotsBaromVisibWave heightAir tempDewpointWater temp
2014-Sep-20 07:31N 34°03' E 135°00'1512.8
2014-Sep-20 06:22N 34°17' E 134°58'1212.3
2014-Sep-20 05:23N 34°27' E 135°07'1112.8
2014-Sep-20 04:33N 34°34' E 135°17'2 1.9
2014-Sep-20 03:33N 34°35' E 135°19'0 0.1
2014-Sep-20 02:33N 34°35' E 135°19'5 1.3
2014-Sep-19 22:33N 34°35' E 135°25'7 6.6
2014-Sep-19 21:33N 34°33' E 135°18'1111.1
2014-Sep-19 20:33N 34°25' E 135°08'1311.1
2014-Sep-19 19:25N 34°15' E 134°59'1011.9
2014-Sep-19 18:33N 34°05' E 135°00'1 0.0
2014-Sep-18 06:17N 34°03' E 135°00'1212.5
2014-Sep-18 05:20N 34°15' E 134°59'1211.4
2014-Sep-18 04:16N 34°25' E 135°07'912.5
2014-Sep-18 03:33N 34°31' E 135°15'9 9.2
2014-Sep-18 02:33N 34°34' E 135°25'0 0.1
2014-Sep-17 23:31N 34°34' E 135°26'4 3.9
2014-Sep-17 22:33N 34°36' E 135°21'9 9.1
2014-Sep-17 21:33N 34°29' E 135°13'1010.3
2014-Sep-17 20:33N 34°22' E 135°04'10 9.9
2014-Sep-17 19:32N 34°13' E 134°60'14 0.4
2014-Sep-16 06:33N 33°60' E 135°01'1412.2
2014-Sep-16 05:24N 34°14' E 134°59'1410.6
2014-Sep-16 04:05N 34°26' E 135°07'612.0
2014-Sep-16 03:33N 34°30' E 135°12'1211.6
2014-Sep-16 02:33N 34°36' E 135°24'2 0.7
2014-Sep-15 23:25N 34°34' E 135°26'3 3.6
2014-Sep-15 22:33N 34°36' E 135°22'1 0.8
2014-Sep-15 21:16N 34°35' E 135°23'0 0.0
2014-Sep-15 20:28N 34°35' E 135°23'0 0.0
2014-Sep-15 19:31N 34°35' E 135°23'0 0.0
2014-Sep-15 18:31N 34°35' E 135°23'0 0.0
2014-Sep-15 17:25N 34°35' E 135°23'0 0.1
2014-Sep-15 16:31N 34°35' E 135°23'0 0.1
2014-Sep-15 15:25N 34°35' E 135°23'0 0.0
2014-Sep-15 14:31N 34°35' E 135°23'0 0.0
2014-Sep-15 13:31N 34°35' E 135°23'0 0.0
2014-Sep-15 12:19N 34°35' E 135°23'0 0.0
2014-Sep-15 11:25N 34°35' E 135°23'0 0.0
2014-Sep-15 09:31N 34°35' E 135°23'0 0.1
2014-Sep-15 08:31N 34°35' E 135°23'4 4.0
2014-Sep-15 07:33N 34°33' E 135°19'1212.3
2014-Sep-15 06:33N 34°25' E 135°08'1311.4
2014-Sep-15 05:23N 34°13' E 134°59'24110.1
2014-Sep-14 05:29N 35°10' E 139°44'1010.3
2014-Sep-14 04:33N 35°19' E 139°43'1111.1
2014-Sep-14 03:34N 35°29' E 139°50'1212.0
2014-Sep-14 02:33N 35°33' E 140°04'1 1.3
2014-Sep-14 01:32N 35°33' E 140°05'1 0.2
2014-Sep-13 21:28N 35°33' E 140°05'0 0.0
2014-Sep-13 20:28N 35°33' E 140°05'0 0.0
2014-Sep-13 19:31N 35°33' E 140°05'0 0.0
2014-Sep-13 18:31N 35°33' E 140°05'0 0.0
2014-Sep-13 17:31N 35°33' E 140°05'0 0.0
2014-Sep-13 16:28N 35°33' E 140°05'0 0.1
2014-Sep-13 15:31N 35°33' E 140°05'0 0.0
2014-Sep-13 14:31N 35°33' E 140°05'0 0.0
2014-Sep-13 13:19N 35°33' E 140°05'0 0.0
2014-Sep-13 12:31N 35°33' E 140°05'0 0.0
2014-Sep-13 11:25N 35°33' E 140°05'0 0.0
2014-Sep-13 10:31N 35°33' E 140°05'0 0.3
2014-Sep-13 09:34N 35°33' E 140°04'1010.4
2014-Sep-13 08:34N 35°29' E 139°53'1212.5
2014-Sep-13 07:33N 35°19' E 139°44'1211.8
2014-Sep-13 06:33N 35°07' E 139°45'7111.5
2014-Sep-13 00:21N 34°29' E 138°32'177 9.9
2014-Sep-12 06:28N 34°02' E 135°00'2512.3
2014-Sep-12 04:26N 34°27' E 135°07'1112.7
2014-Sep-12 03:33N 34°34' E 135°17'7 1.7
2014-Sep-11 23:33N 34°34' E 135°26'8 7.6
2014-Sep-11 22:33N 34°32' E 135°17'1111.4
2014-Sep-11 21:33N 34°25' E 135°06'1210.8
2014-Sep-11 20:28N 34°14' E 134°59'  
Track history (hours):
 
Tides and Currents Weather Stations Pressure Air Temp Water Temp Dewpoint Dewpoint Depression Visibility Wind Speed Wind Dir Waves Ship Positions

Shin Puropan Maru

Last reported at 2014-Sep-20 07:31 UTC. Time now 2014-Sep-22 08:10 UTC.
Position N 34°03' E 135°00'.

Length 66 m; draft 3.6 m.

Type: Ship (hazmat cat A). MMSI: 431100348.

Date/timePositionNaut miles runAvg speedWind from/ knotsBaromVisibWave heightAir tempDewpointWater temp
2014-Sep-20 07:31N 34°03' E 135°00'1512.8
2014-Sep-20 06:22N 34°17' E 134°58'1212.3
2014-Sep-20 05:23N 34°27' E 135°07'1112.8
2014-Sep-20 04:33N 34°34' E 135°17'2 1.9
2014-Sep-20 03:33N 34°35' E 135°19'0 0.1
2014-Sep-20 02:33N 34°35' E 135°19'5 1.3
2014-Sep-19 22:33N 34°35' E 135°25'7 6.6
2014-Sep-19 21:33N 34°33' E 135°18'1111.1
2014-Sep-19 20:33N 34°25' E 135°08'1311.1
2014-Sep-19 19:25N 34°15' E 134°59'1011.9
2014-Sep-19 18:33N 34°05' E 135°00'1 0.0
2014-Sep-18 06:17N 34°03' E 135°00'1212.5
2014-Sep-18 05:20N 34°15' E 134°59'1211.4
2014-Sep-18 04:16N 34°25' E 135°07'912.5
2014-Sep-18 03:33N 34°31' E 135°15'9 9.2
2014-Sep-18 02:33N 34°34' E 135°25'0 0.1
2014-Sep-17 23:31N 34°34' E 135°26'4 3.9
2014-Sep-17 22:33N 34°36' E 135°21'9 9.1
2014-Sep-17 21:33N 34°29' E 135°13'1010.3
2014-Sep-17 20:33N 34°22' E 135°04'10 9.9
2014-Sep-17 19:32N 34°13' E 134°60'14 0.4
2014-Sep-16 06:33N 33°60' E 135°01'1412.2
2014-Sep-16 05:24N 34°14' E 134°59'1410.6
2014-Sep-16 04:05N 34°26' E 135°07'612.0
2014-Sep-16 03:33N 34°30' E 135°12'1211.6
2014-Sep-16 02:33N 34°36' E 135°24'2 0.7
2014-Sep-15 23:25N 34°34' E 135°26'3 3.6
2014-Sep-15 22:33N 34°36' E 135°22'1 0.8
2014-Sep-15 21:16N 34°35' E 135°23'0 0.0
2014-Sep-15 20:28N 34°35' E 135°23'0 0.0
2014-Sep-15 19:31N 34°35' E 135°23'0 0.0
2014-Sep-15 18:31N 34°35' E 135°23'0 0.0
2014-Sep-15 17:25N 34°35' E 135°23'0 0.1
2014-Sep-15 16:31N 34°35' E 135°23'0 0.1
2014-Sep-15 15:25N 34°35' E 135°23'0 0.0
2014-Sep-15 14:31N 34°35' E 135°23'0 0.0
2014-Sep-15 13:31N 34°35' E 135°23'0 0.0
2014-Sep-15 12:19N 34°35' E 135°23'0 0.0
2014-Sep-15 11:25N 34°35' E 135°23'0 0.0
2014-Sep-15 09:31N 34°35' E 135°23'0 0.1
2014-Sep-15 08:31N 34°35' E 135°23'4 4.0
2014-Sep-15 07:33N 34°33' E 135°19'1212.3
2014-Sep-15 06:33N 34°25' E 135°08'1311.4
2014-Sep-15 05:23N 34°13' E 134°59'24110.1
2014-Sep-14 05:29N 35°10' E 139°44'1010.3
2014-Sep-14 04:33N 35°19' E 139°43'1111.1
2014-Sep-14 03:34N 35°29' E 139°50'1212.0
2014-Sep-14 02:33N 35°33' E 140°04'1 1.3
2014-Sep-14 01:32N 35°33' E 140°05'1 0.2
2014-Sep-13 21:28N 35°33' E 140°05'0 0.0
2014-Sep-13 20:28N 35°33' E 140°05'0 0.0
2014-Sep-13 19:31N 35°33' E 140°05'0 0.0
2014-Sep-13 18:31N 35°33' E 140°05'0 0.0
2014-Sep-13 17:31N 35°33' E 140°05'0 0.0
2014-Sep-13 16:28N 35°33' E 140°05'0 0.1
2014-Sep-13 15:31N 35°33' E 140°05'0 0.0
2014-Sep-13 14:31N 35°33' E 140°05'0 0.0
2014-Sep-13 13:19N 35°33' E 140°05'0 0.0
2014-Sep-13 12:31N 35°33' E 140°05'0 0.0
2014-Sep-13 11:25N 35°33' E 140°05'0 0.0
2014-Sep-13 10:31N 35°33' E 140°05'0 0.3
2014-Sep-13 09:34N 35°33' E 140°04'1010.4
2014-Sep-13 08:34N 35°29' E 139°53'1212.5
2014-Sep-13 07:33N 35°19' E 139°44'1211.8
2014-Sep-13 06:33N 35°07' E 139°45'7111.5
2014-Sep-13 00:21N 34°29' E 138°32'177 9.9
2014-Sep-12 06:28N 34°02' E 135°00'2512.3
2014-Sep-12 04:26N 34°27' E 135°07'1112.7
2014-Sep-12 03:33N 34°34' E 135°17'7 1.7
2014-Sep-11 23:33N 34°34' E 135°26'8 7.6
2014-Sep-11 22:33N 34°32' E 135°17'1111.4
2014-Sep-11 21:33N 34°25' E 135°06'1210.8
2014-Sep-11 20:28N 34°14' E 134°59'  

Dump ship's entire track history